EGLLOBBI

Guest
Details From EGLL - London Heathrow
To OBBI - Bahrain Intl
Flight Number -
Tags Generated
Created
Modified
Stats Distance 2,752 nm / 5,097 km
Max Altitude 0 ft / 0 m
Waypoints 11
Social Downloads 8
Likes 0
Share VATSIM

Download

Looking for another format? Having issues loading an existing format? Contact us
Advertisement - Login to hide

Notes

Generated

Route

EGLL LGE03 BOLSI WW901 TSR VALPA YUCEL ADRES ASB18 BAH50 OBBI

ID Type Via Altitude Latitude Longitude Leg Dist Tot Dist Heading (true) Name
O EGLL APT - 0 ft / 0 m 51.46477˚ -0.48695˚ - 0 nm - -
LGE03 FIX - 0 ft / 0 m 50.48214˚ 5.29070˚ 226 nm 226 nm 103° / 107° -
BOLSI FIX - 0 ft / 0 m 49.23113˚ 10.75751˚ 224 nm 450 nm 107° / 112° -
WW901 FIX - 0 ft / 0 m 47.74959˚ 15.88119˚ 222 nm 673 nm 112° / 115° -
TSR NDB - 0 ft / 0 m 45.81799˚ 21.30541˚ 251 nm 924 nm 115° / 119° TIMISOARA NDB
VALPA FIX - 0 ft / 0 m 44.07959˚ 25.25300˚ 197 nm 1122 nm 120° / 123° -
YUCEL FIX - 0 ft / 0 m 39.58000˚ 33.58584˚ 460 nm 1582 nm 123° / 129° -
ADRES FIX - 0 ft / 0 m 37.17139˚ 37.33361˚ 228 nm 1810 nm 128° / 130° -
ASB18 FIX - 0 ft / 0 m 29.14357˚ 47.51090˚ 702 nm 2512 nm 130° / 136° -
BAH50 FIX - 0 ft / 0 m 26.36872˚ 50.52864˚ 231 nm 2743 nm 135° / 137° -
O OBBI APT - 0 ft / 0 m 26.27100˚ 50.62993˚ 8 nm 2751 nm 137° / 137° -

Altitude Profile

Advertisement - Login to hide

Weather


0- 5 10 15 20 25 30 35+ Temperature / ° C

Clouds and Precipitation
Forecast for 2018-05-27 12:00 UTC. Updated an hour ago

Ground ~20,000 ft ~40,000 ft Winds

EGLL

Details ICAO EGLL (LHR)
Name London Heathrow
Region United Kingdom
Timezone Europe/London (UTC+1.0)
Stats Elevation 83 ft / 25 m (AMSL)
Location 51.471218° -0.460978°
Runways 2
Magnetic Variation 0.494° W

METAR

EGLL 271020Z AUTO 10005KT 050V140 9000 NCD 23/17 Q1016

Decode

TAF

TAF EGLL 270457Z 2706/2812 07008KT 9999 SCT040 PROB40 TEMPO 2706/2711 3000 TSRA BKN014 BKN025CB TEMPO 2711/2720 06015G25KT 3000 +TSRAGR BKN014 BKN025CB PROB30 2804/2810 7000 BKN008

Decode

Departure Runways

ID Width Length Bearing (true) Bearing (mag) Surface Threshold Offset Overrun Length
09L 164 ft / 50 m 12,811 ft / 3,905 m 89.64° 90.13° Asphalt 1,004 ft / 306 m 0 ft / 0 m
09R 164 ft / 50 m 12,019 ft / 3,663 m 89.67° 90.16° Asphalt 1,007 ft / 307 m 0 ft / 0 m
27L 164 ft / 50 m 12,019 ft / 3,663 m 269.71° 270.20° Asphalt 0 ft / 0 m 69 ft / 21 m
27R 164 ft / 50 m 12,811 ft / 3,905 m 269.69° 270.18° Asphalt 0 ft / 0 m 69 ft / 21 m

OBBI

Details ICAO OBBI (BAH)
Name BAHRAIN INTL
Region Bahrain
Timezone Asia/Bahrain (UTC+3.0)
Stats Elevation 6 ft / 2 m (AMSL)
Location 26.267837° 50.637095°
Runways 2
Magnetic Variation 2.783° E

METAR

OBBI 271030Z 34008KT 300V010 CAVOK 37/19 Q1005 NOSIG

Decode

TAF

TAF OBBI 270500Z 2706/2812 36008KT CAVOK= TAF OMAA 270500Z 2706/2812 18012KT 8000 NSC BECMG 2709/2711 34013KT PROB30 TEMPO 2711/2714 VRB18G30KT 3000 BLDU FEW045TCU BECMG 2718/2720 07005KT BECMG 2801/2803 18010KT BECMG 2809/2811 30011KT

Decode

Destination Runways

ID Width Length Bearing (true) Bearing (mag) Surface Threshold Offset Overrun Length
12L 197 ft / 60 m 12,893 ft / 3,930 m 122.74° 119.96° Asphalt 1,000 ft / 305 m 0 ft / 0 m
12R 148 ft / 45 m 8,303 ft / 2,531 m 122.76° 119.98° Asphalt 1,000 ft / 305 m 0 ft / 0 m
30L 148 ft / 45 m 8,303 ft / 2,531 m 302.77° 299.99° Asphalt 395 ft / 120 m 0 ft / 0 m
30R 197 ft / 60 m 12,893 ft / 3,930 m 302.75° 299.97° Asphalt 1,000 ft / 305 m 0 ft / 0 m

Approach Navaids

Runway Type Ident Frequency Range Bearing (true) Bearing (mag) Slope Elevation
12L Localiser IBIB 111.50 MHz 18 nm / 33 km 122.74° 119.96° - 6 ft / 2 m (AMSL)
12L Glidescope IBIB 111.50 MHz 10 nm / 19 km 122.75° 119.96° 3.00° 6 ft / 2 m (AMSL)
12L DME IBIB 111.50 MHz 18 nm / 33 km - - - 42 ft / 13 m (AMSL)
30R Localiser IBIA 110.30 MHz 18 nm / 33 km 302.77° 299.99° - 6 ft / 2 m (AMSL)
30R Glidescope IBIA 110.30 MHz 10 nm / 19 km 302.75° 299.96° 3.00° 6 ft / 2 m (AMSL)
30R DME IBIA 110.30 MHz 18 nm / 33 km - - - 42 ft / 13 m (AMSL)

Popular Alternatives